Terminal Aerodrome Forecast
Issued by NWS

Current Version | Previous Version | Text Only | Print | Product List | Glossary On
Versions: 1 2 3 4 5 6 7 8 9 10 11 12 13 14 15 16 17 18 19 20 21
000
FTAK31 PAFA 192356 AAA
TAFAOT
TAF AMD
PAOT 192356Z 2000/2024 12030KT 3SM -SN BLSN BR SCT007 SCT015 OVC035
     FM200300 12030G36KT 1/2SM SN BLSN SCT003 OVC007
     FM200600 15035G45KT 1/2SM SN BLSN FZFG BKN003 OVC007
     FM201200 18035G45KT 1/4SM SN BLSN BKN003 OVC007=

USA.gov is the U.S. government's official web portal to all federal, state and local government web resources and services.